PST: 03:50 MST: 04:50 CST: 05:50 EST: 06:50 LDN: 11:50 UTC: 11:50
User Agent: CCBot/2.0 (http://commoncrawl.org/faq/)
IP Address: 54.161.241.199
Hostname: ec2-54-161-241-199.compute-1.amazonaws.com

METAR:
KBFI 081053Z 03003KT 10SM CLR 01/M09 A3023 RMK AO2 SLP237 T00061089 $
KBFI 080953Z 05005KT 10SM CLR 01/M08 A3025 RMK AO2 SLP242 T00061083 $
KBFI 080853Z 05003KT 10SM CLR 01/M08 A3027 RMK AO2 SLP249 T00061083 56018 $
KBFI 080753Z 04004KT 10SM CLR 01/M08 A3029 RMK AO2 SLP255 T00061083 400441028 $

TAF:
KBFI 080542Z 0806/0906 VRB03KT P6SM BKN200
FM 081800 01005KT P6SM SCT130 OVC200
FM 082100 03009KT P6SM FEW050 OVC130
FM 090300 10005KT P6SM -SN SCT028 OVC050

KBFI 072339Z 0800/0824 04004KT P6SM SCT200
FM 081600 08003KT P6SM SCT150 BKN200
FM 082300 05008KT P6SM BKN060 OVC090

KBFI 071739Z 0718/0818 35005KT P6SM SKC
FM 080300 07005KT P6SM SCT200
FM 081700 VRB03KT P6SM SCT150 BKN200

KBFI 071125Z 0712/0812 00000KT P6SM FEW070
FM 071800 05003KT P6SM SKC
FM 080300 10008KT P6SM SKC